createdAt,value
2023-04-25T00:02:23.575Z,38.37
2023-04-25T00:04:57.800Z,38.40
2023-04-25T00:07:30.232Z,38.35
2023-04-25T00:10:02.412Z,38.38
2023-04-25T00:12:34.952Z,38.26
2023-04-25T00:15:07.613Z,38.22
2023-04-25T00:17:40.344Z,38.22
2023-04-25T00:20:13.591Z,38.38
2023-04-25T00:22:45.632Z,38.21
2023-04-25T00:25:17.722Z,38.11
2023-04-25T00:27:50.661Z,38.13
2023-04-25T00:30:22.772Z,38.25
2023-04-25T00:32:55.297Z,38.21
2023-04-25T00:35:27.521Z,37.98
2023-04-25T00:38:00.106Z,37.92
2023-04-25T00:40:32.462Z,38.09
2023-04-25T00:43:04.824Z,38.31
2023-04-25T00:45:39.789Z,38.31
2023-04-25T00:48:12.259Z,38.56
2023-04-25T00:50:46.097Z,38.55
2023-04-25T00:53:18.264Z,38.65
2023-04-25T00:55:52.022Z,38.66
2023-04-25T00:58:25.206Z,39.45
2023-04-25T01:00:59.504Z,38.20
2023-04-25T01:03:32.961Z,38.29
2023-04-25T01:06:05.241Z,36.39
2023-04-25T01:08:37.494Z,34.95
2023-04-25T01:11:10.085Z,35.31
2023-04-25T01:13:42.312Z,36.75
2023-04-25T01:16:14.554Z,37.24
2023-04-25T01:18:47.747Z,37.81
2023-04-25T01:21:20.190Z,38.43
2023-04-25T01:23:53.238Z,38.84
2023-04-25T01:26:27.614Z,39.37
2023-04-25T01:29:00.634Z,39.80
2023-04-25T01:31:34.295Z,39.95
2023-04-25T01:34:06.384Z,40.29
2023-04-25T01:36:38.677Z,40.52
2023-04-25T01:39:11.300Z,40.72
2023-04-25T01:41:43.526Z,40.92
2023-04-25T01:44:16.745Z,41.03
2023-04-25T01:46:49.113Z,41.11
2023-04-25T01:49:21.524Z,41.06
2023-04-25T01:51:54.671Z,41.16
2023-04-25T01:54:26.740Z,41.24
2023-04-25T01:57:00.307Z,41.38
2023-04-25T01:59:32.439Z,41.73
2023-04-25T02:02:24.209Z,41.44
2023-04-25T02:04:57.246Z,41.65
2023-04-25T02:07:32.685Z,41.74
2023-04-25T02:10:05.455Z,41.65
2023-04-25T02:12:39.370Z,41.65
2023-04-25T02:15:29.679Z,41.55
2023-04-25T02:18:05.061Z,41.67
2023-04-25T02:20:38.695Z,41.47
2023-04-25T02:23:10.915Z,41.33
2023-04-25T02:25:43.147Z,41.33
2023-04-25T02:28:15.711Z,41.63
2023-04-25T02:30:48.263Z,41.68
2023-04-25T02:33:22.613Z,41.29
2023-04-25T02:35:54.865Z,41.00
2023-04-25T02:38:28.300Z,40.86
2023-04-25T02:41:02.133Z,40.98
2023-04-25T02:43:34.316Z,40.61
2023-04-25T02:46:06.749Z,40.49
2023-04-25T02:48:38.853Z,40.28
2023-04-25T02:51:11.133Z,40.24
2023-04-25T02:53:43.388Z,40.21
2023-04-25T02:56:15.812Z,40.15
2023-04-25T02:58:47.897Z,39.81
2023-04-25T03:01:20.828Z,39.62
2023-04-25T03:03:53.427Z,39.27
2023-04-25T03:06:27.297Z,39.19
2023-04-25T03:09:00.989Z,39.32
2023-04-25T03:11:33.739Z,39.22
2023-04-25T03:14:06.582Z,38.61
2023-04-25T03:16:39.389Z,38.99
2023-04-25T03:19:11.864Z,38.62
2023-04-25T03:21:44.469Z,39.69
2023-04-25T03:24:17.613Z,39.69
2023-04-25T03:26:49.896Z,39.27
2023-04-25T03:29:24.007Z,39.31
2023-04-25T03:31:56.891Z,39.33
2023-04-25T03:34:29.174Z,39.07
2023-04-25T03:37:01.753Z,38.89
2023-04-25T03:39:35.232Z,38.82
2023-04-25T03:42:07.005Z,38.52
2023-04-25T03:44:39.405Z,38.52
2023-04-25T03:47:11.930Z,38.37
2023-04-25T03:49:44.480Z,37.92
2023-04-25T03:52:17.325Z,37.41
2023-04-25T03:54:49.903Z,37.35
2023-04-25T03:57:23.676Z,37.33
2023-04-25T03:59:56.254Z,37.34
2023-04-25T04:02:29.229Z,37.62
2023-04-25T04:05:04.155Z,37.63
2023-04-25T04:07:38.415Z,37.67
2023-04-25T04:10:14.254Z,38.01
2023-04-25T04:12:46.835Z,38.37
2023-04-25T04:15:19.899Z,38.50
2023-04-25T04:17:53.920Z,38.63
2023-04-25T04:20:27.262Z,38.74
2023-04-25T04:22:59.890Z,39.10
2023-04-25T04:25:31.953Z,39.18
2023-04-25T04:28:12.257Z,39.53
2023-04-25T04:30:47.107Z,39.56
2023-04-25T04:33:21.026Z,39.53
2023-04-25T04:35:56.814Z,39.84
2023-04-25T04:38:28.878Z,39.80
2023-04-25T04:41:03.497Z,39.86
2023-04-25T04:43:54.447Z,40.17
2023-04-25T04:46:32.962Z,40.44
2023-04-25T04:49:15.640Z,40.59
2023-04-25T04:51:59.789Z,40.54
2023-04-25T04:54:37.243Z,40.54
2023-04-25T04:57:23.530Z,40.40
2023-04-25T05:00:14.862Z,40.78
2023-04-25T05:03:00.819Z,40.60
2023-04-25T05:05:35.170Z,40.68
2023-04-25T05:08:25.475Z,40.83
2023-04-25T05:11:02.073Z,40.21
2023-04-25T05:13:38.886Z,40.25
2023-04-25T05:16:12.902Z,40.20
2023-04-25T05:18:59.217Z,39.38
2023-04-25T05:21:36.006Z,38.92
2023-04-25T05:24:16.403Z,38.76
2023-04-25T05:27:06.812Z,38.11
2023-04-25T05:29:50.032Z,37.62
2023-04-25T05:32:26.584Z,36.92
2023-04-25T05:35:00.196Z,36.96
2023-04-25T05:37:33.946Z,36.94
2023-04-25T05:40:11.540Z,36.45
2023-04-25T05:42:51.563Z,36.37
2023-04-25T05:45:42.050Z,36.35
2023-04-25T05:48:16.223Z,36.38
2023-04-25T05:50:50.367Z,36.06
2023-04-25T05:53:27.065Z,35.87
2023-04-25T05:56:01.115Z,36.15
2023-04-25T05:58:34.480Z,36.19
2023-04-25T06:01:08.300Z,36.16
2023-04-25T06:03:42.470Z,36.06
2023-04-25T06:06:16.662Z,35.91
2023-04-25T06:08:49.628Z,34.88
2023-04-25T06:11:22.516Z,33.61
2023-04-25T06:13:55.190Z,32.01
2023-04-25T06:16:27.782Z,30.69
2023-04-25T06:19:00.948Z,29.47
2023-04-25T06:21:33.348Z,28.97
2023-04-25T06:24:06.470Z,28.59
2023-04-25T06:26:39.301Z,27.56
2023-04-25T06:29:12.490Z,27.28
2023-04-25T06:31:45.022Z,26.39
2023-04-25T06:34:17.496Z,25.30
2023-04-25T06:36:50.023Z,24.83
2023-04-25T06:39:24.253Z,24.69
2023-04-25T06:41:56.542Z,24.18
2023-04-25T06:44:36.946Z,23.99
2023-04-25T06:47:09.878Z,23.05
2023-04-25T06:49:43.265Z,22.37
2023-04-25T06:52:15.682Z,22.05
2023-04-25T06:54:48.162Z,21.89
2023-04-25T06:57:22.041Z,21.23
2023-04-25T06:59:55.121Z,21.39
2023-04-25T07:02:27.497Z,21.75
2023-04-25T07:05:00.991Z,22.56
2023-04-25T07:07:33.857Z,23.23
2023-04-25T07:10:07.936Z,23.90
2023-04-25T07:12:40.376Z,24.52
2023-04-25T07:15:12.895Z,24.72
2023-04-25T07:17:46.892Z,25.83
2023-04-25T07:20:19.521Z,26.59
2023-04-25T07:22:52.484Z,27.10
2023-04-25T07:25:24.996Z,26.96
2023-04-25T07:27:58.064Z,27.29
2023-04-25T07:30:32.170Z,27.72
2023-04-25T07:33:06.137Z,27.77
2023-04-25T07:35:39.114Z,28.22
2023-04-25T07:38:13.840Z,28.42
2023-04-25T07:40:47.276Z,28.72
2023-04-25T07:43:20.009Z,29.08
2023-04-25T07:45:53.767Z,29.21
2023-04-25T07:48:26.890Z,28.20
2023-04-25T07:50:59.629Z,28.56
2023-04-25T07:53:33.146Z,29.52
2023-04-25T07:56:07.149Z,29.99
2023-04-25T07:58:41.652Z,30.09
2023-04-25T08:01:15.194Z,30.18
2023-04-25T08:04:01.534Z,30.39
2023-04-25T08:06:43.513Z,29.66
2023-04-25T08:09:20.744Z,29.00
2023-04-25T08:11:53.302Z,28.58
2023-04-25T08:14:27.314Z,28.36
2023-04-25T08:16:59.780Z,28.55
2023-04-25T08:19:33.271Z,28.26
2023-04-25T08:22:06.426Z,28.37
2023-04-25T08:24:40.439Z,28.71
2023-04-25T08:27:13.525Z,28.66
2023-04-25T08:29:46.766Z,27.85
2023-04-25T08:32:22.581Z,27.43
2023-04-25T08:34:59.555Z,26.54
2023-04-25T08:37:33.806Z,26.25
2023-04-25T08:40:08.764Z,25.90
2023-04-25T08:42:46.314Z,25.03
2023-04-25T08:45:18.805Z,24.66
2023-04-25T08:47:54.462Z,24.90
2023-04-25T08:50:27.553Z,25.17
2023-04-25T08:53:02.937Z,25.25
2023-04-25T08:55:38.207Z,25.03
2023-04-25T08:58:13.350Z,25.27
2023-04-25T09:00:48.351Z,25.42
2023-04-25T09:03:21.528Z,25.48
2023-04-25T09:08:26.417Z,27.49
2023-04-25T09:10:58.677Z,27.50
2023-04-25T09:13:31.532Z,27.80
2023-04-25T09:16:08.593Z,28.30
2023-04-25T09:18:51.625Z,27.28
2023-04-25T09:21:25.374Z,27.48
2023-04-25T09:24:00.652Z,26.52
2023-04-25T09:26:34.240Z,27.03
2023-04-25T09:29:10.399Z,26.98
2023-04-25T09:34:17.106Z,26.76
2023-04-25T09:36:51.998Z,26.45
2023-04-25T09:39:32.165Z,26.57
2023-04-25T09:42:07.576Z,26.55
2023-04-25T09:44:43.524Z,26.67
2023-04-25T09:47:19.005Z,26.32
2023-04-25T09:49:52.662Z,26.22
2023-04-25T09:52:27.742Z,26.13
2023-04-25T09:55:01.960Z,25.87
2023-04-25T09:57:39.376Z,25.54
2023-04-25T10:00:14.463Z,25.71
2023-04-25T10:02:49.758Z,26.00
2023-04-25T10:05:42.139Z,26.32
2023-04-25T10:08:17.525Z,26.68
2023-04-25T10:10:52.183Z,26.01
2023-04-25T10:13:26.153Z,25.89
2023-04-25T10:16:02.576Z,25.87
2023-04-25T10:18:35.552Z,25.33
2023-04-25T10:21:09.211Z,25.39
2023-04-25T10:23:42.158Z,25.54
2023-04-25T10:26:15.586Z,24.98
2023-04-25T10:29:02.218Z,24.67
2023-04-25T10:31:35.543Z,24.51
2023-04-25T10:34:07.896Z,24.77
2023-04-25T10:36:40.862Z,24.45
2023-04-25T10:39:13.338Z,24.24
2023-04-25T10:41:50.102Z,24.04
2023-04-25T10:44:22.439Z,24.02
2023-04-25T10:46:56.588Z,23.66
2023-04-25T10:49:41.312Z,23.92
2023-04-25T10:52:20.762Z,23.54
2023-04-25T10:55:00.142Z,23.79
2023-04-25T10:57:49.603Z,22.31
2023-04-25T11:00:33.942Z,22.30
2023-04-25T11:03:04.141Z,23.50
2023-04-25T11:05:47.312Z,22.81
2023-04-25T11:08:17.660Z,23.24
2023-04-25T11:10:50.925Z,23.63
2023-04-25T11:13:23.950Z,23.60
2023-04-25T11:16:07.069Z,23.02
2023-04-25T11:18:30.885Z,22.83
2023-04-25T11:21:04.948Z,22.18
2023-04-25T11:23:37.697Z,21.86
2023-04-25T11:26:10.229Z,21.56
2023-04-25T11:28:42.812Z,20.92
2023-04-25T11:31:15.174Z,21.25
2023-04-25T11:33:48.732Z,21.67
2023-04-25T11:36:21.052Z,21.56
2023-04-25T11:38:54.141Z,21.92
2023-04-25T11:41:27.671Z,22.24
2023-04-25T11:44:00.524Z,22.28
2023-04-25T11:46:32.723Z,22.50
2023-04-25T11:49:06.079Z,21.82
2023-04-25T11:51:42.929Z,21.54
2023-04-25T11:54:16.773Z,21.00
2023-04-25T11:56:49.129Z,20.92
2023-04-25T11:59:24.258Z,20.34
2023-04-25T12:01:58.666Z,21.39
2023-04-25T12:04:34.744Z,20.80
2023-04-25T12:07:09.765Z,20.47
2023-04-25T12:09:42.672Z,20.62
2023-04-25T12:12:14.829Z,20.65
2023-04-25T12:14:49.896Z,20.61
2023-04-25T12:17:22.097Z,20.12
2023-04-25T12:19:54.170Z,19.61
2023-04-25T12:22:27.297Z,18.84
2023-04-25T12:24:59.886Z,18.35
2023-04-25T12:27:37.884Z,17.94
2023-04-25T12:30:11.800Z,17.52
2023-04-25T12:32:44.636Z,17.54
2023-04-25T12:35:17.063Z,17.99
2023-04-25T12:37:49.780Z,18.48
2023-04-25T12:40:21.876Z,18.50
2023-04-25T12:42:53.946Z,19.20
2023-04-25T12:45:26.157Z,19.73
2023-04-25T12:47:59.095Z,20.09
2023-04-25T12:50:32.347Z,20.12
2023-04-25T12:53:05.130Z,20.37
2023-04-25T12:55:37.296Z,20.31
2023-04-25T12:58:09.300Z,20.04
2023-04-25T13:00:41.537Z,19.56
2023-04-25T13:03:14.442Z,19.18
2023-04-25T13:05:47.501Z,18.92
2023-04-25T13:08:20.337Z,18.37
2023-04-25T13:10:52.628Z,17.82
2023-04-25T13:13:24.933Z,17.38
2023-04-25T13:15:56.995Z,17.10
2023-04-25T13:18:29.049Z,16.66
2023-04-25T13:21:02.976Z,16.31
2023-04-25T13:23:35.127Z,15.56
2023-04-25T13:26:07.808Z,15.55
2023-04-25T13:28:43.574Z,16.31
2023-04-25T13:31:15.634Z,16.97
2023-04-25T13:33:47.755Z,18.27
2023-04-25T13:36:20.192Z,19.38
2023-04-25T13:38:52.641Z,20.18
2023-04-25T13:41:24.949Z,20.60
2023-04-25T13:43:58.319Z,20.33
2023-04-25T13:46:45.419Z,20.43
2023-04-25T13:49:12.202Z,19.90
2023-04-25T13:51:38.688Z,18.88
2023-04-25T13:54:11.274Z,17.76
2023-04-25T13:56:44.144Z,15.81
2023-04-25T13:59:16.382Z,14.47
2023-04-25T14:01:48.537Z,13.23
2023-04-25T14:04:20.789Z,12.48
2023-04-25T14:06:54.176Z,11.52
2023-04-25T14:09:28.247Z,10.98
2023-04-25T14:12:01.626Z,10.21
2023-04-25T14:14:34.454Z,10.00
2023-04-25T14:17:07.697Z,9.58
2023-04-25T14:19:41.437Z,9.55
2023-04-25T14:22:14.790Z,9.42
2023-04-25T14:24:47.375Z,9.28
2023-04-25T14:27:20.780Z,9.15
2023-04-25T14:29:53.491Z,9.03
2023-04-25T14:32:25.635Z,9.10
2023-04-25T14:34:57.901Z,9.11
2023-04-25T14:37:29.911Z,9.76
2023-04-25T14:40:03.185Z,10.30
2023-04-25T14:42:35.477Z,11.21
2023-04-25T14:45:09.511Z,12.40
2023-04-25T14:47:41.968Z,13.17
2023-04-25T14:50:14.180Z,13.25
2023-04-25T14:52:46.284Z,14.52
2023-04-25T14:55:18.590Z,15.25
2023-04-25T14:57:51.305Z,16.03
2023-04-25T15:00:24.564Z,17.21
2023-04-25T15:02:57.751Z,18.39
2023-04-25T15:05:29.918Z,19.35
2023-04-25T15:08:02.593Z,20.36
2023-04-25T15:10:34.871Z,21.08
2023-04-25T15:13:07.066Z,21.86
2023-04-25T15:15:39.723Z,22.47
2023-04-25T15:18:12.232Z,22.88
2023-04-25T15:20:44.775Z,23.26
2023-04-25T15:23:17.755Z,23.58
2023-04-25T15:25:50.188Z,23.88
2023-04-25T15:28:23.053Z,23.79
2023-04-25T15:30:55.584Z,23.99
2023-04-25T15:33:28.070Z,24.27
2023-04-25T15:36:00.455Z,24.53
2023-04-25T15:38:32.811Z,24.75
2023-04-25T15:41:06.605Z,24.73
2023-04-25T15:43:39.004Z,24.86
2023-04-25T15:46:47.635Z,24.73
2023-04-25T15:49:21.328Z,25.14
2023-04-25T15:51:53.730Z,25.33
2023-04-25T15:54:26.352Z,25.60
2023-04-25T15:56:58.949Z,25.85
2023-04-25T15:59:31.318Z,26.20
2023-04-25T16:02:03.659Z,26.39
2023-04-25T16:04:37.408Z,26.57
2023-04-25T16:07:10.023Z,26.83
2023-04-25T16:09:42.665Z,26.88
2023-04-25T16:12:16.958Z,27.37
2023-04-25T16:14:49.188Z,27.56
2023-04-25T16:17:21.518Z,27.67
2023-04-25T16:19:53.769Z,27.39
2023-04-25T16:22:26.500Z,27.38
2023-04-25T16:24:58.908Z,27.55
2023-04-25T16:27:34.836Z,27.93
2023-04-25T16:30:09.514Z,28.34
2023-04-25T16:32:45.289Z,28.62
2023-04-25T16:35:16.316Z,28.85
2023-04-25T16:37:48.456Z,29.11
2023-04-25T16:40:21.129Z,29.64
2023-04-25T16:42:53.155Z,29.79
2023-04-25T16:45:26.372Z,30.12
2023-04-25T16:47:58.769Z,30.30
2023-04-25T16:50:31.055Z,30.60
2023-04-25T16:53:03.274Z,31.08
2023-04-25T16:55:36.488Z,31.19
2023-04-25T16:58:10.734Z,31.41
2023-04-25T17:00:44.832Z,31.79
2023-04-25T17:03:17.877Z,31.98
2023-04-25T17:05:56.242Z,32.26
2023-04-25T17:08:32.097Z,32.09
2023-04-25T17:11:04.491Z,32.45
2023-04-25T17:13:36.964Z,32.31
2023-04-25T17:16:10.970Z,32.70
2023-04-25T17:18:44.142Z,32.31
2023-04-25T17:21:16.283Z,32.50
2023-04-25T17:23:48.413Z,32.49
2023-04-25T17:26:21.360Z,32.27
2023-04-25T17:28:54.403Z,32.56
2023-04-25T17:31:27.871Z,32.82
2023-04-25T17:34:00.477Z,32.41
2023-04-25T17:36:32.865Z,33.98
2023-04-25T17:39:06.658Z,35.00
2023-04-25T17:41:40.330Z,37.32
2023-04-25T17:44:12.927Z,38.66
2023-04-25T17:46:45.224Z,39.46
2023-04-25T17:49:17.502Z,40.23
2023-04-25T17:51:49.720Z,40.98
2023-04-25T17:54:22.991Z,41.72
2023-04-25T17:56:57.300Z,42.43
2023-04-25T17:59:29.435Z,42.76
2023-04-25T18:02:02.255Z,43.25
2023-04-25T18:04:35.701Z,43.63
2023-04-25T18:07:08.314Z,43.67
2023-04-25T18:09:41.231Z,43.95
2023-04-25T18:12:15.016Z,44.48
2023-04-25T18:14:47.241Z,45.42
2023-04-25T18:17:19.216Z,48.18
2023-04-25T18:19:51.658Z,48.57
2023-04-25T18:22:24.182Z,48.76
2023-04-25T18:24:56.291Z,49.05
2023-04-25T18:27:28.417Z,48.97
2023-04-25T18:30:00.905Z,49.36
2023-04-25T18:32:34.911Z,48.92
2023-04-25T18:35:09.206Z,49.63
2023-04-25T18:37:42.327Z,49.42
2023-04-25T18:40:16.372Z,49.25
2023-04-25T18:42:49.855Z,49.72
2023-04-25T18:45:22.431Z,49.52
2023-04-25T18:47:54.970Z,49.84
2023-04-25T18:50:27.705Z,49.25
2023-04-25T18:53:00.400Z,49.57
2023-04-25T18:55:32.394Z,49.53
2023-04-25T18:58:04.583Z,49.62
2023-04-25T19:00:38.276Z,49.49
2023-04-25T19:03:10.853Z,49.60
2023-04-25T19:05:43.285Z,49.61
2023-04-25T19:08:15.531Z,49.00
2023-04-25T19:10:47.697Z,48.57
2023-04-25T19:13:20.013Z,48.60
2023-04-25T19:15:52.310Z,48.57
2023-04-25T19:18:25.359Z,48.57
2023-04-25T19:20:57.521Z,48.60
2023-04-25T19:23:31.430Z,48.37
2023-04-25T19:26:04.722Z,48.37
2023-04-25T19:28:36.932Z,48.20
2023-04-25T19:31:09.342Z,48.27
2023-04-25T19:33:42.090Z,48.72
2023-04-25T19:36:14.258Z,49.23
2023-04-25T19:38:47.168Z,49.29
2023-04-25T19:41:19.640Z,49.34
2023-04-25T19:43:51.822Z,49.37
2023-04-25T19:46:24.700Z,49.89
2023-04-25T19:48:56.853Z,50.21
2023-04-25T19:51:30.861Z,49.99
2023-04-25T19:54:02.859Z,49.89
2023-04-25T19:56:35.462Z,49.95
2023-04-25T19:59:07.774Z,50.11
2023-04-25T20:01:39.800Z,49.82
2023-04-25T20:04:12.656Z,50.07
2023-04-25T20:06:45.028Z,49.69
2023-04-25T20:09:17.182Z,50.13
2023-04-25T20:11:49.439Z,50.08
2023-04-25T20:14:21.990Z,50.28
2023-04-25T20:16:54.437Z,50.08
2023-04-25T20:19:26.437Z,50.00
2023-04-25T20:21:59.055Z,50.18
2023-04-25T20:24:31.404Z,50.54
2023-04-25T20:27:03.558Z,50.61
2023-04-25T20:29:35.713Z,50.42
2023-04-25T20:32:07.816Z,49.91
2023-04-25T20:34:40.177Z,49.69
2023-04-25T20:37:13.956Z,49.59
2023-04-25T20:39:47.010Z,49.93
2023-04-25T20:42:19.204Z,50.54
2023-04-25T20:44:51.364Z,51.16
2023-04-25T20:47:23.629Z,51.44
2023-04-25T20:49:55.992Z,51.34
2023-04-25T20:52:28.109Z,51.33
2023-04-25T20:55:00.274Z,51.53
2023-04-25T20:57:34.105Z,50.77
2023-04-25T21:00:08.472Z,50.86
2023-04-25T21:02:40.985Z,51.23
2023-04-25T21:05:13.413Z,51.37
2023-04-25T21:07:45.695Z,51.72
2023-04-25T21:10:18.963Z,51.84
2023-04-25T21:12:52.739Z,52.17
2023-04-25T21:15:25.166Z,52.03
2023-04-25T21:17:57.437Z,51.97
2023-04-25T21:20:29.713Z,52.18
2023-04-25T21:23:01.826Z,52.38
2023-04-25T21:25:34.109Z,52.19
2023-04-25T21:28:06.622Z,52.61
2023-04-25T21:30:40.269Z,53.00
2023-04-25T21:33:12.867Z,53.28
2023-04-25T21:35:45.129Z,53.50
2023-04-25T21:38:17.726Z,53.95
2023-04-25T21:40:50.098Z,54.60
2023-04-25T21:43:22.244Z,54.84
2023-04-25T21:46:20.873Z,55.77
2023-04-25T21:48:28.657Z,55.77
2023-04-25T21:51:00.884Z,55.85
2023-04-25T21:53:33.060Z,56.47
2023-04-25T21:56:05.530Z,56.47
2023-04-25T21:58:37.757Z,57.01
2023-04-25T22:01:10.078Z,57.67
2023-04-25T22:03:42.595Z,57.67
2023-04-25T22:06:14.893Z,57.83
2023-04-25T22:08:47.321Z,58.75
2023-04-25T22:11:19.641Z,58.75
2023-04-25T22:13:52.383Z,59.02
2023-04-25T22:16:24.648Z,60.06
2023-04-25T22:18:56.811Z,60.84
2023-04-25T22:21:28.914Z,62.33
2023-04-25T22:24:00.882Z,62.33
2023-04-25T22:26:33.662Z,61.82
2023-04-25T22:29:05.713Z,62.15
2023-04-25T22:31:37.570Z,62.98
2023-04-25T22:34:10.035Z,63.76
2023-04-25T22:36:42.156Z,63.76
2023-04-25T22:39:15.543Z,64.88
2023-04-25T22:41:47.965Z,65.10
2023-04-25T22:44:20.160Z,64.41
2023-04-25T22:46:52.268Z,65.42
2023-04-25T22:49:25.151Z,66.06
2023-04-25T22:51:57.689Z,66.59
2023-04-25T22:54:30.039Z,67.40
2023-04-25T22:57:02.392Z,67.57
2023-04-25T22:59:36.073Z,67.71
2023-04-25T23:02:09.384Z,68.51
2023-04-25T23:04:41.640Z,67.83
2023-04-25T23:07:14.620Z,67.76
2023-04-25T23:09:46.888Z,66.76
2023-04-25T23:12:21.725Z,67.32
2023-04-25T23:14:53.828Z,67.86
2023-04-25T23:17:25.837Z,68.80
2023-04-25T23:19:57.979Z,69.37
2023-04-25T23:22:30.545Z,69.03
2023-04-25T23:25:02.801Z,69.84
2023-04-25T23:27:35.501Z,69.68
2023-04-25T23:30:08.832Z,70.54
2023-04-25T23:32:41.172Z,70.57
2023-04-25T23:35:13.458Z,70.47
2023-04-25T23:37:45.785Z,71.48
2023-04-25T23:40:18.013Z,71.18
2023-04-25T23:42:50.983Z,71.92
2023-04-25T23:45:23.119Z,70.90
2023-04-25T23:47:55.177Z,71.95
2023-04-25T23:50:27.257Z,72.17
2023-04-25T23:52:59.527Z,72.67
2023-04-25T23:55:31.968Z,73.21
2023-04-25T23:58:04.202Z,73.37
